sensor_id;sensor_type;location;lat;lon;timestamp;P1;durP1;ratioP1;P2;durP2;ratioP2
7263;SDS011;3673;52.480;13.348;2023-07-30T00:00:26;7.22;;;5.60;;
7263;SDS011;3673;52.480;13.348;2023-07-30T00:02:53;7.75;;;4.82;;
7263;SDS011;3673;52.480;13.348;2023-07-30T00:05:20;6.13;;;5.30;;
7263;SDS011;3673;52.480;13.348;2023-07-30T00:07:47;5.60;;;4.68;;
7263;SDS011;3673;52.480;13.348;2023-07-30T00:10:15;5.88;;;5.28;;
7263;SDS011;3673;52.480;13.348;2023-07-30T00:12:43;6.85;;;5.20;;
7263;SDS011;3673;52.480;13.348;2023-07-30T00:15:09;5.97;;;5.38;;
7263;SDS011;3673;52.480;13.348;2023-07-30T00:17:37;5.93;;;4.70;;
7263;SDS011;3673;52.480;13.348;2023-07-30T00:20:05;4.47;;;3.97;;
7263;SDS011;3673;52.480;13.348;2023-07-30T00:22:33;6.30;;;4.72;;
7263;SDS011;3673;52.480;13.348;2023-07-30T00:25:00;5.47;;;4.97;;
7263;SDS011;3673;52.480;13.348;2023-07-30T00:27:29;7.75;;;4.30;;
7263;SDS011;3673;52.480;13.348;2023-07-30T00:29:56;5.88;;;4.63;;
7263;SDS011;3673;52.480;13.348;2023-07-30T00:32:23;4.68;;;4.22;;
7263;SDS011;3673;52.480;13.348;2023-07-30T00:34:50;5.07;;;4.57;;
7263;SDS011;3673;52.480;13.348;2023-07-30T00:37:16;4.53;;;4.13;;
7263;SDS011;3673;52.480;13.348;2023-07-30T00:39:44;4.80;;;4.35;;
7263;SDS011;3673;52.480;13.348;2023-07-30T00:42:10;4.68;;;4.22;;
7263;SDS011;3673;52.480;13.348;2023-07-30T00:44:39;5.00;;;4.50;;
7263;SDS011;3673;52.480;13.348;2023-07-30T00:47:05;5.35;;;4.75;;
7263;SDS011;3673;52.480;13.348;2023-07-30T00:49:33;4.60;;;3.80;;
7263;SDS011;3673;52.480;13.348;2023-07-30T00:52:00;5.90;;;5.22;;
7263;SDS011;3673;52.480;13.348;2023-07-30T00:54:27;9.35;;;7.65;;
7263;SDS011;3673;52.480;13.348;2023-07-30T00:56:54;12.63;;;6.85;;
7263;SDS011;3673;52.480;13.348;2023-07-30T00:59:21;6.60;;;5.90;;
7263;SDS011;3673;52.480;13.348;2023-07-30T01:01:49;9.65;;;5.28;;
7263;SDS011;3673;52.480;13.348;2023-07-30T01:04:18;6.30;;;4.07;;
7263;SDS011;3673;52.480;13.348;2023-07-30T01:06:44;3.55;;;3.08;;
7263;SDS011;3673;52.480;13.348;2023-07-30T01:09:11;4.03;;;3.63;;
7263;SDS011;3673;52.480;13.348;2023-07-30T01:11:38;6.10;;;5.50;;
7263;SDS011;3673;52.480;13.348;2023-07-30T01:14:06;5.30;;;4.70;;
7263;SDS011;3673;52.480;13.348;2023-07-30T01:16:35;5.25;;;3.65;;
7263;SDS011;3673;52.480;13.348;2023-07-30T01:19:04;5.53;;;4.03;;
7263;SDS011;3673;52.480;13.348;2023-07-30T01:21:33;4.38;;;3.85;;
7263;SDS011;3673;52.480;13.348;2023-07-30T01:24:00;7.57;;;5.03;;
7263;SDS011;3673;52.480;13.348;2023-07-30T01:26:28;4.28;;;3.88;;
7263;SDS011;3673;52.480;13.348;2023-07-30T01:29:03;6.18;;;4.80;;
7263;SDS011;3673;52.480;13.348;2023-07-30T01:31:37;5.00;;;3.80;;
7263;SDS011;3673;52.480;13.348;2023-07-30T01:34:06;6.13;;;3.63;;
7263;SDS011;3673;52.480;13.348;2023-07-30T01:36:37;3.83;;;3.53;;
7263;SDS011;3673;52.480;13.348;2023-07-30T01:39:04;4.15;;;3.75;;
7263;SDS011;3673;52.480;13.348;2023-07-30T01:41:32;6.20;;;4.18;;
7263;SDS011;3673;52.480;13.348;2023-07-30T01:43:59;4.82;;;4.07;;
7263;SDS011;3673;52.480;13.348;2023-07-30T01:46:25;5.10;;;4.45;;
7263;SDS011;3673;52.480;13.348;2023-07-30T01:48:52;4.57;;;3.80;;
7263;SDS011;3673;52.480;13.348;2023-07-30T01:51:19;6.32;;;4.38;;
7263;SDS011;3673;52.480;13.348;2023-07-30T01:53:47;4.70;;;4.30;;
7263;SDS011;3673;52.480;13.348;2023-07-30T01:56:14;7.32;;;4.68;;
7263;SDS011;3673;52.480;13.348;2023-07-30T01:58:40;4.53;;;4.13;;
7263;SDS011;3673;52.480;13.348;2023-07-30T02:01:07;4.10;;;3.70;;
7263;SDS011;3673;52.480;13.348;2023-07-30T02:03:34;5.05;;;3.88;;
7263;SDS011;3673;52.480;13.348;2023-07-30T02:06:01;6.53;;;3.83;;
7263;SDS011;3673;52.480;13.348;2023-07-30T02:08:27;6.00;;;3.80;;
7263;SDS011;3673;52.480;13.348;2023-07-30T02:10:56;5.70;;;4.32;;
7263;SDS011;3673;52.480;13.348;2023-07-30T02:13:23;4.55;;;3.47;;
7263;SDS011;3673;52.480;13.348;2023-07-30T02:15:50;4.85;;;3.70;;
7263;SDS011;3673;52.480;13.348;2023-07-30T02:18:17;6.18;;;4.25;;
7263;SDS011;3673;52.480;13.348;2023-07-30T02:20:43;4.50;;;4.10;;
7263;SDS011;3673;52.480;13.348;2023-07-30T02:23:10;6.38;;;4.32;;
7263;SDS011;3673;52.480;13.348;2023-07-30T02:25:37;5.78;;;4.30;;
7263;SDS011;3673;52.480;13.348;2023-07-30T02:28:05;5.40;;;4.13;;
7263;SDS011;3673;52.480;13.348;2023-07-30T02:30:32;5.10;;;4.60;;
7263;SDS011;3673;52.480;13.348;2023-07-30T02:32:59;7.68;;;4.63;;
7263;SDS011;3673;52.480;13.348;2023-07-30T02:35:26;8.27;;;4.15;;
7263;SDS011;3673;52.480;13.348;2023-07-30T02:37:53;4.57;;;4.18;;
7263;SDS011;3673;52.480;13.348;2023-07-30T02:40:20;6.35;;;4.60;;
7263;SDS011;3673;52.480;13.348;2023-07-30T02:42:46;7.32;;;4.75;;
7263;SDS011;3673;52.480;13.348;2023-07-30T02:45:14;6.95;;;4.03;;
7263;SDS011;3673;52.480;13.348;2023-07-30T02:47:43;4.60;;;4.05;;
7263;SDS011;3673;52.480;13.348;2023-07-30T02:50:09;4.68;;;4.28;;
7263;SDS011;3673;52.480;13.348;2023-07-30T02:52:36;7.03;;;4.40;;
7263;SDS011;3673;52.480;13.348;2023-07-30T02:55:03;4.65;;;4.10;;
7263;SDS011;3673;52.480;13.348;2023-07-30T02:57:31;7.05;;;4.65;;
7263;SDS011;3673;52.480;13.348;2023-07-30T02:59:57;5.43;;;4.63;;
7263;SDS011;3673;52.480;13.348;2023-07-30T03:02:25;6.25;;;4.50;;
7263;SDS011;3673;52.480;13.348;2023-07-30T03:04:53;4.65;;;4.20;;
7263;SDS011;3673;52.480;13.348;2023-07-30T03:07:20;5.22;;;4.72;;
7263;SDS011;3673;52.480;13.348;2023-07-30T03:09:47;4.70;;;4.30;;
7263;SDS011;3673;52.480;13.348;2023-07-30T03:12:14;5.88;;;4.72;;
7263;SDS011;3673;52.480;13.348;2023-07-30T03:14:40;5.30;;;4.38;;
7263;SDS011;3673;52.480;13.348;2023-07-30T03:17:07;7.15;;;4.57;;
7263;SDS011;3673;52.480;13.348;2023-07-30T03:19:35;4.75;;;4.35;;
7263;SDS011;3673;52.480;13.348;2023-07-30T03:22:02;6.85;;;5.05;;
7263;SDS011;3673;52.480;13.348;2023-07-30T03:24:29;5.30;;;4.80;;
7263;SDS011;3673;52.480;13.348;2023-07-30T03:26:56;6.50;;;4.88;;
7263;SDS011;3673;52.480;13.348;2023-07-30T03:29:23;6.65;;;5.05;;
7263;SDS011;3673;52.480;13.348;2023-07-30T03:31:49;5.10;;;4.60;;
7263;SDS011;3673;52.480;13.348;2023-07-30T03:34:16;5.30;;;4.80;;
7263;SDS011;3673;52.480;13.348;2023-07-30T03:36:44;5.45;;;4.95;;
7263;SDS011;3673;52.480;13.348;2023-07-30T03:39:11;7.53;;;4.22;;
7263;SDS011;3673;52.480;13.348;2023-07-30T03:41:38;5.50;;;4.90;;
7263;SDS011;3673;52.480;13.348;2023-07-30T03:44:04;9.05;;;4.97;;
7263;SDS011;3673;52.480;13.348;2023-07-30T03:46:31;6.63;;;5.32;;
7263;SDS011;3673;52.480;13.348;2023-07-30T03:48:58;6.05;;;5.45;;
7263;SDS011;3673;52.480;13.348;2023-07-30T03:51:26;5.75;;;5.22;;
7263;SDS011;3673;52.480;13.348;2023-07-30T03:53:54;9.95;;;5.00;;
7263;SDS011;3673;52.480;13.348;2023-07-30T03:56:21;9.00;;;5.50;;
7263;SDS011;3673;52.480;13.348;2023-07-30T03:58:48;5.53;;;4.95;;
7263;SDS011;3673;52.480;13.348;2023-07-30T04:01:14;10.52;;;5.65;;
7263;SDS011;3673;52.480;13.348;2023-07-30T04:03:41;6.75;;;5.40;;
7263;SDS011;3673;52.480;13.348;2023-07-30T04:06:08;8.40;;;5.07;;
7263;SDS011;3673;52.480;13.348;2023-07-30T04:08:35;6.35;;;5.72;;
7263;SDS011;3673;52.480;13.348;2023-07-30T04:11:03;7.25;;;4.97;;
7263;SDS011;3673;52.480;13.348;2023-07-30T04:13:29;5.47;;;4.97;;
7263;SDS011;3673;52.480;13.348;2023-07-30T04:15:56;6.28;;;5.13;;
7263;SDS011;3673;52.480;13.348;2023-07-30T04:18:23;6.07;;;5.20;;
7263;SDS011;3673;52.480;13.348;2023-07-30T04:20:50;5.57;;;5.07;;
7263;SDS011;3673;52.480;13.348;2023-07-30T04:23:16;6.22;;;5.57;;
7263;SDS011;3673;52.480;13.348;2023-07-30T04:25:43;5.93;;;5.32;;
7263;SDS011;3673;52.480;13.348;2023-07-30T04:28:11;9.48;;;5.97;;
7263;SDS011;3673;52.480;13.348;2023-07-30T04:30:38;5.90;;;5.40;;
7263;SDS011;3673;52.480;13.348;2023-07-30T04:33:04;6.00;;;5.40;;
7263;SDS011;3673;52.480;13.348;2023-07-30T04:35:31;6.13;;;5.50;;
7263;SDS011;3673;52.480;13.348;2023-07-30T04:37:58;6.10;;;5.50;;
7263;SDS011;3673;52.480;13.348;2023-07-30T04:40:24;5.10;;;4.60;;
7263;SDS011;3673;52.480;13.348;2023-07-30T04:42:51;5.60;;;5.05;;
7263;SDS011;3673;52.480;13.348;2023-07-30T04:45:19;7.45;;;5.05;;
7263;SDS011;3673;52.480;13.348;2023-07-30T04:47:46;6.18;;;4.88;;
7263;SDS011;3673;52.480;13.348;2023-07-30T04:50:12;5.90;;;5.38;;
7263;SDS011;3673;52.480;13.348;2023-07-30T04:52:39;5.22;;;4.72;;
7263;SDS011;3673;52.480;13.348;2023-07-30T04:55:06;4.97;;;4.57;;
7263;SDS011;3673;52.480;13.348;2023-07-30T04:57:33;5.78;;;5.20;;
7263;SDS011;3673;52.480;13.348;2023-07-30T05:00:00;5.57;;;5.03;;
7263;SDS011;3673;52.480;13.348;2023-07-30T05:02:29;5.25;;;4.85;;
7263;SDS011;3673;52.480;13.348;2023-07-30T05:04:56;6.10;;;5.50;;
7263;SDS011;3673;52.480;13.348;2023-07-30T05:07:22;5.03;;;4.63;;
7263;SDS011;3673;52.480;13.348;2023-07-30T05:09:49;7.90;;;5.40;;
7263;SDS011;3673;52.480;13.348;2023-07-30T05:12:16;5.07;;;4.68;;
7263;SDS011;3673;52.480;13.348;2023-07-30T05:14:42;5.15;;;4.60;;
7263;SDS011;3673;52.480;13.348;2023-07-30T05:17:09;4.85;;;4.03;;
7263;SDS011;3673;52.480;13.348;2023-07-30T05:19:37;5.25;;;3.97;;
7263;SDS011;3673;52.480;13.348;2023-07-30T05:22:04;8.85;;;4.53;;
7263;SDS011;3673;52.480;13.348;2023-07-30T05:24:32;5.57;;;4.13;;
7263;SDS011;3673;52.480;13.348;2023-07-30T05:27:01;4.50;;;4.10;;
7263;SDS011;3673;52.480;13.348;2023-07-30T05:29:29;4.00;;;3.70;;
7263;SDS011;3673;52.480;13.348;2023-07-30T05:31:55;4.38;;;3.90;;
7263;SDS011;3673;52.480;13.348;2023-07-30T05:34:22;4.32;;;3.92;;
7263;SDS011;3673;52.480;13.348;2023-07-30T05:36:50;4.57;;;3.85;;
7263;SDS011;3673;52.480;13.348;2023-07-30T05:39:17;4.07;;;3.78;;
7263;SDS011;3673;52.480;13.348;2023-07-30T05:41:43;3.75;;;3.45;;
7263;SDS011;3673;52.480;13.348;2023-07-30T05:44:10;4.45;;;3.55;;
7263;SDS011;3673;52.480;13.348;2023-07-30T05:46:37;4.38;;;3.53;;
7263;SDS011;3673;52.480;13.348;2023-07-30T05:49:04;4.45;;;3.65;;
7263;SDS011;3673;52.480;13.348;2023-07-30T05:51:30;7.63;;;3.67;;
7263;SDS011;3673;52.480;13.348;2023-07-30T05:53:58;4.72;;;3.40;;
7263;SDS011;3673;52.480;13.348;2023-07-30T05:56:25;3.92;;;3.10;;
7263;SDS011;3673;52.480;13.348;2023-07-30T05:58:52;3.88;;;3.58;;
7263;SDS011;3673;52.480;13.348;2023-07-30T06:01:19;4.03;;;3.25;;
7263;SDS011;3673;52.480;13.348;2023-07-30T06:03:46;3.53;;;3.22;;
7263;SDS011;3673;52.480;13.348;2023-07-30T06:06:12;3.65;;;3.35;;
7263;SDS011;3673;52.480;13.348;2023-07-30T06:08:39;3.22;;;2.92;;
7263;SDS011;3673;52.480;13.348;2023-07-30T06:11:07;3.17;;;2.90;;
7263;SDS011;3673;52.480;13.348;2023-07-30T06:13:34;3.25;;;2.92;;
7263;SDS011;3673;52.480;13.348;2023-07-30T06:16:02;3.30;;;3.00;;
7263;SDS011;3673;52.480;13.348;2023-07-30T06:18:29;2.95;;;2.75;;
7263;SDS011;3673;52.480;13.348;2023-07-30T06:20:55;2.97;;;2.67;;
7263;SDS011;3673;52.480;13.348;2023-07-30T06:23:22;3.38;;;2.95;;
7263;SDS011;3673;52.480;13.348;2023-07-30T06:25:49;3.30;;;3.00;;
7263;SDS011;3673;52.480;13.348;2023-07-30T06:28:17;5.25;;;2.70;;
7263;SDS011;3673;52.480;13.348;2023-07-30T06:30:43;3.25;;;2.95;;
7263;SDS011;3673;52.480;13.348;2023-07-30T06:33:10;2.90;;;2.60;;
7263;SDS011;3673;52.480;13.348;2023-07-30T06:35:37;3.47;;;2.63;;
7263;SDS011;3673;52.480;13.348;2023-07-30T06:38:05;3.40;;;3.10;;
7263;SDS011;3673;52.480;13.348;2023-07-30T06:40:34;3.40;;;2.72;;
7263;SDS011;3673;52.480;13.348;2023-07-30T06:43:01;2.90;;;2.42;;
7263;SDS011;3673;52.480;13.348;2023-07-30T06:45:29;3.08;;;2.78;;
7263;SDS011;3673;52.480;13.348;2023-07-30T06:47:56;2.95;;;2.53;;
7263;SDS011;3673;52.480;13.348;2023-07-30T06:50:22;3.10;;;2.80;;
7263;SDS011;3673;52.480;13.348;2023-07-30T06:52:49;3.80;;;2.78;;
7263;SDS011;3673;52.480;13.348;2023-07-30T06:55:16;5.68;;;2.78;;
7263;SDS011;3673;52.480;13.348;2023-07-30T06:57:42;5.57;;;2.97;;
7263;SDS011;3673;52.480;13.348;2023-07-30T07:00:10;5.85;;;2.90;;
7263;SDS011;3673;52.480;13.348;2023-07-30T07:02:39;3.63;;;2.58;;
7263;SDS011;3673;52.480;13.348;2023-07-30T07:05:06;2.63;;;2.42;;
7263;SDS011;3673;52.480;13.348;2023-07-30T07:07:32;4.65;;;2.75;;
7263;SDS011;3673;52.480;13.348;2023-07-30T07:09:59;2.65;;;2.45;;
7263;SDS011;3673;52.480;13.348;2023-07-30T07:12:26;16.20;;;12.18;;
7263;SDS011;3673;52.480;13.348;2023-07-30T07:14:53;3.92;;;3.50;;
7263;SDS011;3673;52.480;13.348;2023-07-30T07:17:23;5.07;;;4.53;;
7263;SDS011;3673;52.480;13.348;2023-07-30T07:19:51;6.63;;;5.43;;
7263;SDS011;3673;52.480;13.348;2023-07-30T07:22:17;3.58;;;3.00;;
7263;SDS011;3673;52.480;13.348;2023-07-30T07:24:44;3.45;;;3.15;;
7263;SDS011;3673;52.480;13.348;2023-07-30T07:27:11;5.47;;;2.70;;
7263;SDS011;3673;52.480;13.348;2023-07-30T07:29:38;5.57;;;3.15;;
7263;SDS011;3673;52.480;13.348;2023-07-30T07:32:05;3.70;;;2.92;;
7263;SDS011;3673;52.480;13.348;2023-07-30T07:34:32;2.97;;;2.70;;
7263;SDS011;3673;52.480;13.348;2023-07-30T07:37:00;3.53;;;2.80;;
7263;SDS011;3673;52.480;13.348;2023-07-30T07:39:27;3.88;;;2.75;;
7263;SDS011;3673;52.480;13.348;2023-07-30T07:41:54;4.00;;;3.03;;
7263;SDS011;3673;52.480;13.348;2023-07-30T07:44:21;4.10;;;3.00;;
7263;SDS011;3673;52.480;13.348;2023-07-30T07:46:48;3.47;;;2.85;;
7263;SDS011;3673;52.480;13.348;2023-07-30T07:49:15;3.67;;;2.42;;
7263;SDS011;3673;52.480;13.348;2023-07-30T07:51:42;6.95;;;3.00;;
7263;SDS011;3673;52.480;13.348;2023-07-30T07:54:10;3.88;;;3.13;;
7263;SDS011;3673;52.480;13.348;2023-07-30T07:56:36;3.80;;;2.53;;
7263;SDS011;3673;52.480;13.348;2023-07-30T07:59:03;4.72;;;3.13;;
7263;SDS011;3673;52.480;13.348;2023-07-30T08:01:30;3.33;;;2.97;;
7263;SDS011;3673;52.480;13.348;2023-07-30T08:03:56;4.00;;;3.03;;
7263;SDS011;3673;52.480;13.348;2023-07-30T08:06:23;2.95;;;2.75;;
7263;SDS011;3673;52.480;13.348;2023-07-30T08:08:50;3.40;;;3.10;;
7263;SDS011;3673;52.480;13.348;2023-07-30T08:11:18;3.70;;;2.67;;
7263;SDS011;3673;52.480;13.348;2023-07-30T08:13:45;4.80;;;3.13;;
7263;SDS011;3673;52.480;13.348;2023-07-30T08:16:13;3.33;;;3.03;;
7263;SDS011;3673;52.480;13.348;2023-07-30T08:18:40;4.88;;;2.88;;
7263;SDS011;3673;52.480;13.348;2023-07-30T08:21:07;3.95;;;3.35;;
7263;SDS011;3673;52.480;13.348;2023-07-30T08:23:34;4.32;;;3.78;;
7263;SDS011;3673;52.480;13.348;2023-07-30T08:26:01;5.95;;;3.15;;
7263;SDS011;3673;52.480;13.348;2023-07-30T08:28:29;3.15;;;2.83;;
7263;SDS011;3673;52.480;13.348;2023-07-30T08:30:59;4.20;;;2.72;;
7263;SDS011;3673;52.480;13.348;2023-07-30T08:33:27;5.32;;;2.67;;
7263;SDS011;3673;52.480;13.348;2023-07-30T08:35:54;5.43;;;2.58;;
7263;SDS011;3673;52.480;13.348;2023-07-30T08:38:21;3.15;;;2.42;;
7263;SDS011;3673;52.480;13.348;2023-07-30T08:40:48;3.70;;;2.35;;
7263;SDS011;3673;52.480;13.348;2023-07-30T08:43:15;2.58;;;2.38;;
7263;SDS011;3673;52.480;13.348;2023-07-30T08:45:44;3.60;;;2.83;;
7263;SDS011;3673;52.480;13.348;2023-07-30T08:48:11;5.53;;;2.72;;
7263;SDS011;3673;52.480;13.348;2023-07-30T08:50:38;5.25;;;3.00;;
7263;SDS011;3673;52.480;13.348;2023-07-30T08:53:07;3.97;;;2.50;;
7263;SDS011;3673;52.480;13.348;2023-07-30T08:55:34;4.10;;;2.80;;
7263;SDS011;3673;52.480;13.348;2023-07-30T08:58:04;8.35;;;2.75;;
7263;SDS011;3673;52.480;13.348;2023-07-30T09:00:32;3.30;;;2.50;;
7263;SDS011;3673;52.480;13.348;2023-07-30T09:03:04;4.85;;;2.42;;
7263;SDS011;3673;52.480;13.348;2023-07-30T09:05:32;3.55;;;2.30;;
7263;SDS011;3673;52.480;13.348;2023-07-30T09:07:59;4.50;;;2.47;;
7263;SDS011;3673;52.480;13.348;2023-07-30T09:10:26;3.67;;;2.20;;
7263;SDS011;3673;52.480;13.348;2023-07-30T09:12:53;4.35;;;2.63;;
7263;SDS011;3673;52.480;13.348;2023-07-30T09:15:28;3.30;;;2.70;;
7263;SDS011;3673;52.480;13.348;2023-07-30T09:17:57;2.72;;;1.80;;
7263;SDS011;3673;52.480;13.348;2023-07-30T09:20:25;2.90;;;2.35;;
7263;SDS011;3673;52.480;13.348;2023-07-30T09:22:56;3.72;;;2.10;;
7263;SDS011;3673;52.480;13.348;2023-07-30T09:25:25;3.53;;;2.10;;
7263;SDS011;3673;52.480;13.348;2023-07-30T09:27:52;4.18;;;2.33;;
7263;SDS011;3673;52.480;13.348;2023-07-30T09:30:23;4.47;;;2.10;;
7263;SDS011;3673;52.480;13.348;2023-07-30T09:32:51;5.40;;;2.30;;
7263;SDS011;3673;52.480;13.348;2023-07-30T09:35:19;2.28;;;2.08;;
7263;SDS011;3673;52.480;13.348;2023-07-30T09:37:48;3.42;;;2.20;;
7263;SDS011;3673;52.480;13.348;2023-07-30T09:40:15;2.97;;;2.20;;
7263;SDS011;3673;52.480;13.348;2023-07-30T09:42:44;4.75;;;1.95;;
7263;SDS011;3673;52.480;13.348;2023-07-30T09:45:17;3.75;;;2.58;;
7263;SDS011;3673;52.480;13.348;2023-07-30T09:47:50;3.53;;;2.33;;
7263;SDS011;3673;52.480;13.348;2023-07-30T09:50:19;4.78;;;2.38;;
7263;SDS011;3673;52.480;13.348;2023-07-30T09:52:46;3.33;;;2.17;;
7263;SDS011;3673;52.480;13.348;2023-07-30T09:55:15;2.72;;;2.05;;
7263;SDS011;3673;52.480;13.348;2023-07-30T09:57:43;5.20;;;2.67;;
7263;SDS011;3673;52.480;13.348;2023-07-30T10:00:10;4.20;;;2.30;;
7263;SDS011;3673;52.480;13.348;2023-07-30T10:02:38;3.08;;;2.08;;
7263;SDS011;3673;52.480;13.348;2023-07-30T10:05:10;3.92;;;2.20;;
7263;SDS011;3673;52.480;13.348;2023-07-30T10:07:42;3.78;;;2.35;;
7263;SDS011;3673;52.480;13.348;2023-07-30T10:10:16;3.08;;;2.13;;
7263;SDS011;3673;52.480;13.348;2023-07-30T10:12:45;2.63;;;2.00;;
7263;SDS011;3673;52.480;13.348;2023-07-30T10:15:13;4.10;;;2.13;;
7263;SDS011;3673;52.480;13.348;2023-07-30T10:17:45;5.80;;;1.90;;
7263;SDS011;3673;52.480;13.348;2023-07-30T10:20:21;4.78;;;2.10;;
7263;SDS011;3673;52.480;13.348;2023-07-30T10:22:53;2.50;;;2.15;;
7263;SDS011;3673;52.480;13.348;2023-07-30T10:25:29;2.83;;;1.85;;
7263;SDS011;3673;52.480;13.348;2023-07-30T10:28:08;4.68;;;2.28;;
7263;SDS011;3673;52.480;13.348;2023-07-30T10:30:34;3.53;;;2.40;;
7263;SDS011;3673;52.480;13.348;2023-07-30T10:33:02;4.35;;;1.80;;
7263;SDS011;3673;52.480;13.348;2023-07-30T10:35:37;2.63;;;1.90;;
7263;SDS011;3673;52.480;13.348;2023-07-30T10:38:12;3.67;;;2.15;;
7263;SDS011;3673;52.480;13.348;2023-07-30T10:41:00;3.75;;;2.10;;
7263;SDS011;3673;52.480;13.348;2023-07-30T10:43:29;3.97;;;2.40;;
7263;SDS011;3673;52.480;13.348;2023-07-30T10:45:56;4.30;;;2.30;;
7263;SDS011;3673;52.480;13.348;2023-07-30T10:48:33;4.43;;;2.10;;
7263;SDS011;3673;52.480;13.348;2023-07-30T10:51:02;3.78;;;2.00;;
7263;SDS011;3673;52.480;13.348;2023-07-30T10:53:31;3.15;;;1.90;;
7263;SDS011;3673;52.480;13.348;2023-07-30T10:56:02;5.57;;;2.42;;
7263;SDS011;3673;52.480;13.348;2023-07-30T10:58:30;2.53;;;1.73;;
7263;SDS011;3673;52.480;13.348;2023-07-30T11:00:58;2.97;;;2.33;;
7263;SDS011;3673;52.480;13.348;2023-07-30T11:03:27;2.17;;;1.95;;
7263;SDS011;3673;52.480;13.348;2023-07-30T11:05:56;3.13;;;1.83;;
7263;SDS011;3673;52.480;13.348;2023-07-30T11:08:31;4.28;;;2.35;;
7263;SDS011;3673;52.480;13.348;2023-07-30T11:10:59;4.97;;;2.00;;
7263;SDS011;3673;52.480;13.348;2023-07-30T11:13:28;3.97;;;2.08;;
7263;SDS011;3673;52.480;13.348;2023-07-30T11:15:54;3.25;;;1.50;;
7263;SDS011;3673;52.480;13.348;2023-07-30T11:18:21;3.95;;;2.03;;
7263;SDS011;3673;52.480;13.348;2023-07-30T11:20:48;2.65;;;1.70;;
7263;SDS011;3673;52.480;13.348;2023-07-30T11:23:17;5.00;;;2.00;;
7263;SDS011;3673;52.480;13.348;2023-07-30T11:25:45;4.15;;;2.00;;
7263;SDS011;3673;52.480;13.348;2023-07-30T11:28:15;4.72;;;1.90;;
7263;SDS011;3673;52.480;13.348;2023-07-30T11:30:54;2.45;;;1.65;;
7263;SDS011;3673;52.480;13.348;2023-07-30T11:33:26;5.10;;;2.17;;
7263;SDS011;3673;52.480;13.348;2023-07-30T11:35:53;4.35;;;2.15;;
7263;SDS011;3673;52.480;13.348;2023-07-30T11:38:21;4.30;;;1.98;;
7263;SDS011;3673;52.480;13.348;2023-07-30T11:40:49;4.15;;;2.17;;
7263;SDS011;3673;52.480;13.348;2023-07-30T11:43:18;3.20;;;2.00;;
7263;SDS011;3673;52.480;13.348;2023-07-30T11:45:45;2.42;;;1.50;;
7263;SDS011;3673;52.480;13.348;2023-07-30T11:48:12;4.78;;;3.00;;
7263;SDS011;3673;52.480;13.348;2023-07-30T11:50:46;2.88;;;2.05;;
7263;SDS011;3673;52.480;13.348;2023-07-30T11:53:14;3.97;;;2.03;;
7263;SDS011;3673;52.480;13.348;2023-07-30T11:55:42;2.75;;;2.05;;
7263;SDS011;3673;52.480;13.348;2023-07-30T11:58:10;6.32;;;2.60;;
7263;SDS011;3673;52.480;13.348;2023-07-30T12:00:40;6.30;;;2.55;;
7263;SDS011;3673;52.480;13.348;2023-07-30T12:03:10;2.92;;;2.00;;
7263;SDS011;3673;52.480;13.348;2023-07-30T12:05:38;3.40;;;1.98;;
7263;SDS011;3673;52.480;13.348;2023-07-30T12:08:06;3.25;;;1.88;;
7263;SDS011;3673;52.480;13.348;2023-07-30T12:10:42;3.63;;;1.73;;
7263;SDS011;3673;52.480;13.348;2023-07-30T12:13:15;3.65;;;2.25;;
7263;SDS011;3673;52.480;13.348;2023-07-30T12:15:51;3.08;;;1.73;;
7263;SDS011;3673;52.480;13.348;2023-07-30T12:18:19;5.93;;;2.13;;
7263;SDS011;3673;52.480;13.348;2023-07-30T12:20:46;3.67;;;2.05;;
7263;SDS011;3673;52.480;13.348;2023-07-30T12:23:15;4.75;;;1.90;;
7263;SDS011;3673;52.480;13.348;2023-07-30T12:25:42;3.63;;;2.00;;
7263;SDS011;3673;52.480;13.348;2023-07-30T12:28:09;4.05;;;1.95;;
7263;SDS011;3673;52.480;13.348;2023-07-30T12:30:36;3.55;;;1.98;;
7263;SDS011;3673;52.480;13.348;2023-07-30T12:33:04;5.05;;;2.30;;
7263;SDS011;3673;52.480;13.348;2023-07-30T12:35:32;8.27;;;2.38;;
7263;SDS011;3673;52.480;13.348;2023-07-30T12:37:59;2.92;;;2.10;;
7263;SDS011;3673;52.480;13.348;2023-07-30T12:40:26;3.13;;;2.25;;
7263;SDS011;3673;52.480;13.348;2023-07-30T12:42:54;3.80;;;2.42;;
7263;SDS011;3673;52.480;13.348;2023-07-30T12:45:21;2.72;;;2.03;;
7263;SDS011;3673;52.480;13.348;2023-07-30T12:47:49;9.70;;;2.63;;
7263;SDS011;3673;52.480;13.348;2023-07-30T12:50:17;3.28;;;1.95;;
7263;SDS011;3673;52.480;13.348;2023-07-30T12:52:44;5.47;;;2.38;;
7263;SDS011;3673;52.480;13.348;2023-07-30T12:55:10;3.90;;;2.30;;
7263;SDS011;3673;52.480;13.348;2023-07-30T12:57:37;3.70;;;2.05;;
7263;SDS011;3673;52.480;13.348;2023-07-30T13:00:04;5.30;;;2.25;;
7263;SDS011;3673;52.480;13.348;2023-07-30T13:02:33;6.00;;;2.55;;
7263;SDS011;3673;52.480;13.348;2023-07-30T13:05:00;3.15;;;2.47;;
7263;SDS011;3673;52.480;13.348;2023-07-30T13:07:28;6.22;;;3.42;;
7263;SDS011;3673;52.480;13.348;2023-07-30T13:10:02;5.85;;;2.58;;
7263;SDS011;3673;52.480;13.348;2023-07-30T13:12:31;4.75;;;2.30;;
7263;SDS011;3673;52.480;13.348;2023-07-30T13:14:58;5.00;;;2.67;;
7263;SDS011;3673;52.480;13.348;2023-07-30T13:17:25;4.03;;;2.60;;
7263;SDS011;3673;52.480;13.348;2023-07-30T13:19:52;4.65;;;2.70;;
7263;SDS011;3673;52.480;13.348;2023-07-30T13:22:19;4.68;;;2.33;;
7263;SDS011;3673;52.480;13.348;2023-07-30T13:24:47;3.45;;;2.55;;
7263;SDS011;3673;52.480;13.348;2023-07-30T13:27:14;3.28;;;2.10;;
7263;SDS011;3673;52.480;13.348;2023-07-30T13:29:41;3.22;;;2.40;;
7263;SDS011;3673;52.480;13.348;2023-07-30T13:32:07;3.15;;;2.53;;
7263;SDS011;3673;52.480;13.348;2023-07-30T13:34:34;4.60;;;2.53;;
7263;SDS011;3673;52.480;13.348;2023-07-30T13:37:01;4.95;;;1.90;;
7263;SDS011;3673;52.480;13.348;2023-07-30T13:39:29;2.95;;;2.05;;
7263;SDS011;3673;52.480;13.348;2023-07-30T13:41:57;3.90;;;2.20;;
7263;SDS011;3673;52.480;13.348;2023-07-30T13:44:23;2.28;;;2.08;;
7263;SDS011;3673;52.480;13.348;2023-07-30T13:46:50;2.67;;;1.60;;
7263;SDS011;3673;52.480;13.348;2023-07-30T13:49:18;5.43;;;1.98;;
7263;SDS011;3673;52.480;13.348;2023-07-30T13:51:45;3.65;;;2.10;;
7263;SDS011;3673;52.480;13.348;2023-07-30T13:54:12;2.63;;;1.45;;
7263;SDS011;3673;52.480;13.348;2023-07-30T13:56:39;2.65;;;1.65;;
7263;SDS011;3673;52.480;13.348;2023-07-30T13:59:07;3.60;;;1.70;;
7263;SDS011;3673;52.480;13.348;2023-07-30T14:01:34;4.15;;;1.48;;
7263;SDS011;3673;52.480;13.348;2023-07-30T14:04:00;3.47;;;1.70;;
7263;SDS011;3673;52.480;13.348;2023-07-30T14:06:27;2.33;;;1.60;;
7263;SDS011;3673;52.480;13.348;2023-07-30T14:08:55;3.53;;;1.65;;
7263;SDS011;3673;52.480;13.348;2023-07-30T14:11:24;3.58;;;1.63;;
7263;SDS011;3673;52.480;13.348;2023-07-30T14:13:51;1.67;;;1.15;;
7263;SDS011;3673;52.480;13.348;2023-07-30T14:16:19;6.00;;;1.63;;
7263;SDS011;3673;52.480;13.348;2023-07-30T14:18:46;2.80;;;1.65;;
7263;SDS011;3673;52.480;13.348;2023-07-30T14:21:13;2.63;;;1.60;;
7263;SDS011;3673;52.480;13.348;2023-07-30T14:23:40;3.53;;;1.45;;
7263;SDS011;3673;52.480;13.348;2023-07-30T14:26:07;4.55;;;1.50;;
7263;SDS011;3673;52.480;13.348;2023-07-30T14:28:34;6.50;;;2.17;;
7263;SDS011;3673;52.480;13.348;2023-07-30T14:31:01;4.75;;;1.80;;
7263;SDS011;3673;52.480;13.348;2023-07-30T14:33:29;2.63;;;1.55;;
7263;SDS011;3673;52.480;13.348;2023-07-30T14:35:56;3.45;;;1.60;;
7263;SDS011;3673;52.480;13.348;2023-07-30T14:38:22;3.38;;;2.22;;
7263;SDS011;3673;52.480;13.348;2023-07-30T14:40:49;6.03;;;1.85;;
7263;SDS011;3673;52.480;13.348;2023-07-30T14:43:16;2.28;;;1.52;;
7263;SDS011;3673;52.480;13.348;2023-07-30T14:45:43;2.35;;;1.60;;
7263;SDS011;3673;52.480;13.348;2023-07-30T14:48:10;2.63;;;1.83;;
7263;SDS011;3673;52.480;13.348;2023-07-30T14:50:38;3.45;;;1.70;;
7263;SDS011;3673;52.480;13.348;2023-07-30T14:53:05;2.08;;;1.30;;
7263;SDS011;3673;52.480;13.348;2023-07-30T14:55:32;3.25;;;1.60;;
7263;SDS011;3673;52.480;13.348;2023-07-30T14:57:59;5.28;;;2.22;;
7263;SDS011;3673;52.480;13.348;2023-07-30T15:00:26;6.82;;;2.13;;
7263;SDS011;3673;52.480;13.348;2023-07-30T15:02:53;7.07;;;3.30;;